KUKI

Details ICAO KUKI
Name UKIAH MUNI
Region United States
Timezone America/Los_Angeles (UTC-7.0)
Plans Departing 9
Arriving 15
Stats Elevation 614 ft / 187 m (AMSL)
Location 39.125957° -123.200856°
Runways 1
Magnetic Variation 13.873° E
Sunrise 2018-05-20 12:56:57 UTC / 2018-05-20 05:56:57 Local
Sunset 2018-05-21 03:24:36 UTC / 2018-05-20 20:24:36 Local
Advertisement - Login to hide

Runways

ID Width Length Bearing (true) Bearing (mag) Surface Threshold Offset Overrun Length
15 150 ft / 46 m 4,422 ft / 1,348 m 168.37° 154.50° Asphalt 0 ft / 0 m 0 ft / 0 m
33 150 ft / 46 m 4,422 ft / 1,348 m 348.37° 334.50° Asphalt 0 ft / 0 m 0 ft / 0 m

Approach Navaids

Runway Type Ident Frequency Range Bearing (true) Bearing (mag) Slope Elevation
15 Localiser IUKI 109.10 MHz 18 nm / 33 km 168.37° 154.49° - 614 ft / 187 m (AMSL)
15 DME IUKI 109.10 MHz 18 nm / 33 km - - - 608 ft / 185 m (AMSL)

Map

Weather


0- 5 10 15 20 25 30 35+ Temperature / ° C

Clouds and Precipitation
Forecast for 2018-05-21 06:00 UTC. Updated 2 hours ago

Ground ~20,000 ft ~40,000 ft Winds

METAR

KUKI 210656Z AUTO 01006KT 10SM CLR 12/07 A2991 RMK AO2 SLP125 T01170072

TAF

TAF KUKI 210538Z 2106/2206 36007KT P6SM SCT200 FM211200 36005KT P6SM SCT020 FM211900 30008KT P6SM SKC

Frequencies

Recorded 119.27 MHz ASOS
Unicom 123.00 MHz CTAF/UNICOM
Warning: Do not use this data for real-world aviation or navigation. No guarantee of current accuracy is given.